James M Cox Dayton International Airport
KDAY : now visible

Airfield :











YOU CAN JOIN US ON...

 
LOGIN :

Register | Disclaimer

   EN    FR    IT 

 









Legend :    VFR   Marginal VFR   IFR   Intensive IFR   Very Intensive IFR
Visi :
Ceiling :
>= 8 km
>= 3000ft
5 to 8 km
1000 to 3000 ft
1500m to 5 km
500 to 1000 ft
800 to 1500m
200 to 500 ft
< 800m
< 200 ft
Symbols :   Thunderstorms  Fog  Heavy snow  Heavy precipitations  Wind > 20 kt






- Airport Elevation : 1009 ft
- IATA code : DAY


KDAY - James M Cox Dayton International

CURRENT METAR :
  • 031956Z 24015G22KT 10SM BKN019 OVC026 07/04 A2975 RMK AO2 RAB1858E18 SLP077 P0001 T00720039

EXPIRED METARs :
  • 031915Z 24014KT 7SM -RA SCT011 OVC020 07/04 A2975 RMK AO2 RAB1858 P0001 T00670039
  • 031902Z 23018G24KT 2SM -RA BR FEW009 BKN013 OVC018 07/04 A2974 RMK AO2 TWR VIS 2 1/2 RAB1858 P0000 T00670044
  • 031856Z 24018G28KT 3SM BR OVC014 07/04 A2974 RMK AO2 PK WND 24028/1852 SFC VIS 5 RAB34E50 SLP076 P0000 T00670044
  • 031756Z 22016G25KT 10SM BKN009 OVC016 07/04 A2973 RMK AO2 PK WND 23026/1722 SLP069 T00720039 10089 20050 58005 $
  • 031656Z 23016KT 10SM OVC008 08/05 A2973 RMK AO2 SLP070 T00830050 $
  • 031556Z 21014KT 8SM BKN008 OVC019 08/06 A2975 RMK AO2 SLP076 T00830056 $
  • 031541Z 20011KT 8SM SCT008 OVC020 09/06 A2974 RMK AO2 CIG 008 RWY 6L T00890056 $
  • 031456Z 20008KT 8SM OVC019 07/06 A2974 RMK AO2 SLP074 T00720056 50001 $

TAF KDAY
Valid from the 03 at 18:00 until the 04 at 18:00 UTC


031741Z 0318/0418 23015G25KT 6SM -SHRA OVC015
TEMPO 0318/0319 OVC008
FM032100 24015G25KT P6SM VCSH OVC015
FM040000 26012KT P6SM BKN015
FM041000 VRB03KT P6SM BKN022
KZID FIR / North America



MET'MAP, your aeronautical weather chart ! - Copyright ORBIFLY December 2007 - Disclaimer

ORBIFLY MET'MAP TEAM :

Programming & Development : Alexandra Zaïnal
Original concept : Baudouin d'Aumeries
Technical & hardware support : Manuel Goepfert
Assistance : Marc-Olivier Méhu




SOURCES & CREDITS :

   NOAA       Earth
Advisory